Time;durP1;ratioP1;P1;durP2;ratioP2;P2;SDS_P1;SDS_P2;PMS_P1;PMS_P2;Temp;Humidity;BMP_temperature;BMP_pressure;BME280_temperature;BME280_humidity;BME280_pressure;Samples;Min_cycle;Max_cycle;Signal;HPM_P1;HPM_P2
2023/10/31 00:01:25;;;;;;;5.65;2.65;;;;;;;;;;5056920;28;20024;-60
2023/10/31 00:03:51;;;;;;;7.50;2.67;;;;;;;;;;5058153;28;20025;-60
2023/10/31 00:06:17;;;;;;;5.15;2.30;;;;;;;;;;5058539;28;20058;-61
2023/10/31 00:08:42;;;;;;;5.80;2.38;;;;;;;;;;5056870;28;20028;-61
2023/10/31 00:11:08;;;;;;;6.03;2.85;;;;;;;;;;5056137;28;21009;-60
2023/10/31 00:13:33;;;;;;;5.38;2.53;;;;;;;;;;5055520;28;20079;-61
2023/10/31 00:15:59;;;;;;;5.05;2.40;;;;;;;;;;5057573;28;20114;-61
2023/10/31 00:18:24;;;;;;;4.93;2.35;;;;;;;;;;5055444;28;20534;-61
2023/10/31 00:20:50;;;;;;;5.78;2.75;;;;;;;;;;5055197;28;20040;-60
2023/10/31 00:23:16;;;;;;;5.00;2.47;;;;;;;;;;5056575;28;20082;-59
2023/10/31 00:25:41;;;;;;;5.00;2.58;;;;;;;;;;5058921;28;20423;-61
2023/10/31 00:28:07;;;;;;;4.45;2.08;;;;;;;;;;5057488;28;20037;-61
2023/10/31 00:30:32;;;;;;;3.75;2.10;;;;;;;;;;5057693;28;20074;-61
2023/10/31 00:32:58;;;;;;;4.60;2.05;;;;;;;;;;5057397;28;20126;-62
2023/10/31 00:35:24;;;;;;;3.53;1.80;;;;;;;;;;5058402;28;20094;-62
2023/10/31 00:37:49;;;;;;;3.90;1.83;;;;;;;;;;5057295;28;20037;-61
2023/10/31 00:40:16;;;;;;;5.65;2.38;;;;;;;;;;5058004;28;20052;-62
2023/10/31 00:42:42;;;;;;;5.47;2.70;;;;;;;;;;5056028;28;20063;-61
2023/10/31 00:45:08;;;;;;;4.50;2.17;;;;;;;;;;5057931;28;20060;-62
2023/10/31 00:47:34;;;;;;;5.22;2.20;;;;;;;;;;5054224;28;20049;-61
2023/10/31 00:50:00;;;;;;;4.72;2.10;;;;;;;;;;5057118;28;20040;-62
2023/10/31 00:52:25;;;;;;;4.22;2.22;;;;;;;;;;5056374;28;20079;-61
2023/10/31 00:54:51;;;;;;;4.90;2.08;;;;;;;;;;5052178;28;20036;-61
2023/10/31 00:57:16;;;;;;;5.15;2.05;;;;;;;;;;5056088;28;20032;-61
2023/10/31 00:59:43;;;;;;;7.20;2.30;;;;;;;;;;5049784;28;20067;-61
2023/10/31 01:02:08;;;;;;;4.53;1.83;;;;;;;;;;5047942;28;20557;-60
2023/10/31 01:04:35;;;;;;;4.95;1.90;;;;;;;;;;5054049;28;20082;-62
2023/10/31 01:07:01;;;;;;;5.40;1.90;;;;;;;;;;5052017;28;20077;-61
2023/10/31 01:09:26;;;;;;;5.47;2.10;;;;;;;;;;5056567;28;20460;-61
2023/10/31 01:11:52;;;;;;;5.20;2.10;;;;;;;;;;5053368;28;20044;-61
2023/10/31 01:14:17;;;;;;;3.35;1.60;;;;;;;;;;5055587;28;20040;-62
2023/10/31 01:16:43;;;;;;;5.47;1.77;;;;;;;;;;5052156;28;20836;-62
2023/10/31 01:19:09;;;;;;;4.13;1.70;;;;;;;;;;5051449;28;20082;-61
2023/10/31 01:21:35;;;;;;;4.90;1.83;;;;;;;;;;5053254;28;20055;-60
2023/10/31 01:24:00;;;;;;;5.07;2.22;;;;;;;;;;5055854;28;20074;-61
2023/10/31 01:26:26;;;;;;;6.10;2.17;;;;;;;;;;5054550;28;20033;-61
2023/10/31 01:28:51;;;;;;;3.75;1.70;;;;;;;;;;5053401;28;20036;-61
2023/10/31 01:31:17;;;;;;;4.18;1.70;;;;;;;;;;5053930;28;20060;-61
2023/10/31 01:33:43;;;;;;;4.32;1.60;;;;;;;;;;5052990;28;20060;-61
2023/10/31 01:36:10;;;;;;;3.05;1.52;;;;;;;;;;5053163;28;20036;-61
2023/10/31 01:38:36;;;;;;;4.15;1.92;;;;;;;;;;5050364;28;20060;-60
2023/10/31 01:41:01;;;;;;;3.35;1.77;;;;;;;;;;5054585;28;20145;-62
2023/10/31 01:43:34;;;;;;;4.40;1.90;;;;;;;;;;5053449;28;20753;-62
2023/10/31 01:46:00;;;;;;;4.47;1.90;;;;;;;;;;5058017;28;20513;-61
2023/10/31 01:48:27;;;;;;;4.57;1.63;;;;;;;;;;5051874;28;20110;-61
2023/10/31 01:50:52;;;;;;;5.82;1.60;;;;;;;;;;5053586;28;20447;-61
2023/10/31 01:53:18;;;;;;;3.47;1.60;;;;;;;;;;5053279;28;20122;-61
2023/10/31 01:55:47;;;;;;;4.05;2.05;;;;;;;;;;5052535;28;20090;-61
2023/10/31 01:58:12;;;;;;;4.05;1.80;;;;;;;;;;5057336;28;20469;-62
2023/10/31 02:00:42;;;;;;;4.00;1.83;;;;;;;;;;5053442;28;20051;-61
2023/10/31 02:03:08;;;;;;;3.25;1.60;;;;;;;;;;5059477;28;20068;-61
2023/10/31 02:05:34;;;;;;;3.47;1.65;;;;;;;;;;5060248;28;20033;-62
2023/10/31 02:08:00;;;;;;;2.83;1.60;;;;;;;;;;5060007;28;20687;-62
2023/10/31 02:10:25;;;;;;;4.40;1.88;;;;;;;;;;5058184;28;20078;-62
2023/10/31 02:12:53;;;;;;;3.80;1.90;;;;;;;;;;5054884;28;20082;-61
2023/10/31 02:15:19;;;;;;;3.70;1.50;;;;;;;;;;5051735;28;20059;-61
2023/10/31 02:17:45;;;;;;;4.57;1.92;;;;;;;;;;5053751;28;20033;-61
2023/10/31 02:20:10;;;;;;;3.22;1.48;;;;;;;;;;5055287;28;20137;-62
2023/10/31 02:22:36;;;;;;;2.85;1.42;;;;;;;;;;5050736;28;20146;-61
2023/10/31 02:25:01;;;;;;;2.60;1.52;;;;;;;;;;5053265;28;20046;-61
2023/10/31 02:27:27;;;;;;;4.03;1.38;;;;;;;;;;5051995;28;20040;-61
2023/10/31 02:29:53;;;;;;;3.65;1.90;;;;;;;;;;5052720;28;20089;-60
2023/10/31 02:32:18;;;;;;;3.83;1.65;;;;;;;;;;5054118;28;20033;-61
2023/10/31 02:34:44;;;;;;;3.42;1.90;;;;;;;;;;5057491;28;20048;-61
2023/10/31 02:37:10;;;;;;;4.45;1.60;;;;;;;;;;5054401;28;20634;-61
2023/10/31 02:39:36;;;;;;;3.08;1.58;;;;;;;;;;5052459;28;20031;-62
2023/10/31 02:42:02;;;;;;;5.05;1.60;;;;;;;;;;5053087;28;20064;-62
2023/10/31 02:44:28;;;;;;;3.30;1.70;;;;;;;;;;5052274;28;20067;-59
2023/10/31 02:46:53;;;;;;;2.85;1.67;;;;;;;;;;5051774;28;20091;-61
2023/10/31 02:49:19;;;;;;;3.28;1.50;;;;;;;;;;5038642;28;20423;-60
2023/10/31 02:51:44;;;;;;;3.03;1.50;;;;;;;;;;5054902;28;20045;-60
2023/10/31 02:54:10;;;;;;;3.95;1.65;;;;;;;;;;5059519;28;20097;-59
2023/10/31 02:56:36;;;;;;;3.30;1.40;;;;;;;;;;5059357;28;20477;-59
2023/10/31 02:59:01;;;;;;;3.25;1.35;;;;;;;;;;5057639;28;20090;-59
2023/10/31 03:01:30;;;;;;;3.03;1.33;;;;;;;;;;5056199;28;20028;-61
2023/10/31 03:03:55;;;;;;;3.00;1.15;;;;;;;;;;5057715;28;20060;-58
2023/10/31 03:06:21;;;;;;;3.38;1.50;;;;;;;;;;5056398;28;20106;-61
2023/10/31 03:08:47;;;;;;;4.10;1.50;;;;;;;;;;5056132;28;20037;-61
2023/10/31 03:11:25;;;;;;;3.40;1.20;;;;;;;;;;5056803;28;20041;-60
2023/10/31 03:13:51;;;;;;;3.63;1.60;;;;;;;;;;5058132;28;20060;-59
2023/10/31 03:16:16;;;;;;;2.50;1.27;;;;;;;;;;5056951;28;20036;-61
2023/10/31 03:18:42;;;;;;;2.65;1.13;;;;;;;;;;5058322;28;20037;-60
2023/10/31 03:21:07;;;;;;;5.18;1.30;;;;;;;;;;5059237;28;20037;-60
2023/10/31 03:23:33;;;;;;;2.67;1.23;;;;;;;;;;5058778;28;20025;-61
2023/10/31 03:25:59;;;;;;;3.92;1.35;;;;;;;;;;5055444;28;20043;-59
2023/10/31 03:28:24;;;;;;;3.25;1.40;;;;;;;;;;5055229;28;20040;-61
2023/10/31 03:30:50;;;;;;;4.10;1.35;;;;;;;;;;5057802;28;20831;-60
2023/10/31 03:33:16;;;;;;;5.80;1.60;;;;;;;;;;5055193;28;20458;-61
2023/10/31 03:35:42;;;;;;;3.67;1.48;;;;;;;;;;5056372;28;20044;-61
2023/10/31 03:38:08;;;;;;;2.70;1.25;;;;;;;;;;5054275;28;20482;-60
2023/10/31 03:40:33;;;;;;;3.60;1.50;;;;;;;;;;5052262;28;20481;-60
2023/10/31 03:42:59;;;;;;;3.53;1.15;;;;;;;;;;5054649;28;20048;-61
2023/10/31 03:45:24;;;;;;;3.65;1.27;;;;;;;;;;5058315;28;20109;-61
2023/10/31 03:47:50;;;;;;;3.13;1.45;;;;;;;;;;5058840;28;20506;-60
2023/10/31 03:50:16;;;;;;;2.95;1.45;;;;;;;;;;5059092;28;20036;-61
2023/10/31 03:52:41;;;;;;;3.85;1.50;;;;;;;;;;5053197;28;20078;-61
2023/10/31 03:55:07;;;;;;;4.32;1.45;;;;;;;;;;5055763;28;20716;-61
2023/10/31 03:57:33;;;;;;;2.83;1.33;;;;;;;;;;5053589;28;20068;-60
2023/10/31 03:59:58;;;;;;;2.40;1.40;;;;;;;;;;5056021;28;20584;-61
2023/10/31 04:02:24;;;;;;;2.67;1.30;;;;;;;;;;5058482;28;20037;-60
2023/10/31 04:04:50;;;;;;;2.88;1.23;;;;;;;;;;5058184;28;20118;-60
2023/10/31 04:07:15;;;;;;;3.72;1.20;;;;;;;;;;5057287;28;20048;-59
2023/10/31 04:09:41;;;;;;;2.20;1.20;;;;;;;;;;5058546;28;20033;-59
2023/10/31 04:12:07;;;;;;;2.78;1.10;;;;;;;;;;5051936;28;20090;-60
2023/10/31 04:14:32;;;;;;;3.13;1.27;;;;;;;;;;5051010;28;20056;-60
2023/10/31 04:16:58;;;;;;;3.13;1.30;;;;;;;;;;5051196;28;20647;-60
2023/10/31 04:19:23;;;;;;;4.82;1.23;;;;;;;;;;5052382;28;20052;-59
2023/10/31 04:21:49;;;;;;;2.95;1.23;;;;;;;;;;5051357;28;20048;-60
2023/10/31 04:24:14;;;;;;;2.80;1.10;;;;;;;;;;5054644;28;20503;-60
2023/10/31 04:26:41;;;;;;;2.45;1.00;;;;;;;;;;5052298;28;20045;-60
2023/10/31 04:29:06;;;;;;;4.00;1.27;;;;;;;;;;5050480;28;20072;-61
2023/10/31 04:31:32;;;;;;;2.60;1.15;;;;;;;;;;5053039;28;20436;-60
2023/10/31 04:33:57;;;;;;;2.20;1.25;;;;;;;;;;5051334;28;20119;-59
2023/10/31 04:36:24;;;;;;;3.45;1.27;;;;;;;;;;5050950;28;20082;-61
2023/10/31 04:38:49;;;;;;;2.40;1.27;;;;;;;;;;5051489;28;20074;-59
2023/10/31 04:41:15;;;;;;;2.20;1.00;;;;;;;;;;5050235;28;20056;-59
2023/10/31 04:43:41;;;;;;;2.83;1.17;;;;;;;;;;5049332;28;20449;-60
2023/10/31 04:46:07;;;;;;;2.20;0.93;;;;;;;;;;5049484;28;20119;-60
2023/10/31 04:48:32;;;;;;;2.20;0.98;;;;;;;;;;5051561;28;20043;-61
2023/10/31 04:50:58;;;;;;;2.83;1.23;;;;;;;;;;5050861;28;20122;-60
2023/10/31 04:53:24;;;;;;;3.80;1.38;;;;;;;;;;5052274;28;20133;-60
2023/10/31 04:55:50;;;;;;;2.40;1.25;;;;;;;;;;5048980;28;20041;-61
2023/10/31 04:58:15;;;;;;;2.55;1.33;;;;;;;;;;5050333;28;20090;-60
2023/10/31 05:00:41;;;;;;;3.47;1.30;;;;;;;;;;5049354;28;20036;-61
2023/10/31 05:03:06;;;;;;;2.42;1.20;;;;;;;;;;5056718;28;20037;-60
2023/10/31 05:05:32;;;;;;;2.20;1.00;;;;;;;;;;5050186;28;20086;-58
2023/10/31 05:07:58;;;;;;;3.05;1.13;;;;;;;;;;5053291;28;20033;-60
2023/10/31 05:10:24;;;;;;;2.28;1.00;;;;;;;;;;5049371;28;20116;-60
2023/10/31 05:12:50;;;;;;;2.60;1.30;;;;;;;;;;5049056;28;20036;-60
2023/10/31 05:15:16;;;;;;;2.17;1.15;;;;;;;;;;5052494;28;20064;-60
2023/10/31 05:17:42;;;;;;;2.47;1.13;;;;;;;;;;5050725;28;20083;-60
2023/10/31 05:20:08;;;;;;;3.65;1.02;;;;;;;;;;5050752;28;20109;-60
2023/10/31 05:22:34;;;;;;;2.58;1.20;;;;;;;;;;5051092;28;20097;-61
2023/10/31 05:25:01;;;;;;;2.20;1.10;;;;;;;;;;5049832;28;20614;-61
2023/10/31 05:27:26;;;;;;;2.45;1.15;;;;;;;;;;5050600;28;20056;-60
2023/10/31 05:29:52;;;;;;;2.60;1.00;;;;;;;;;;5050488;28;20078;-61
2023/10/31 05:32:17;;;;;;;3.25;1.13;;;;;;;;;;5048005;28;20033;-61
2023/10/31 05:34:43;;;;;;;2.70;1.20;;;;;;;;;;5052728;28;20029;-60
2023/10/31 05:37:09;;;;;;;2.45;1.15;;;;;;;;;;5059963;28;20079;-60
2023/10/31 05:39:36;;;;;;;2.30;1.00;;;;;;;;;;5055741;28;20040;-60
2023/10/31 05:42:02;;;;;;;2.20;1.10;;;;;;;;;;5056939;28;20157;-61
2023/10/31 05:44:28;;;;;;;2.10;1.00;;;;;;;;;;5056743;28;20501;-60
2023/10/31 05:46:54;;;;;;;4.03;1.10;;;;;;;;;;5054199;28;20486;-60
2023/10/31 05:49:19;;;;;;;3.38;0.93;;;;;;;;;;5056064;28;20629;-61
2023/10/31 05:51:49;;;;;;;3.22;1.00;;;;;;;;;;5057286;28;20543;-60
2023/10/31 05:54:14;;;;;;;2.28;1.10;;;;;;;;;;5061660;28;20090;-60
2023/10/31 05:56:40;;;;;;;2.53;1.23;;;;;;;;;;5058285;28;20028;-60
2023/10/31 05:59:06;;;;;;;2.63;1.00;;;;;;;;;;5058192;28;20040;-60
2023/10/31 06:01:32;;;;;;;2.20;1.10;;;;;;;;;;5058328;28;20056;-59
2023/10/31 06:03:57;;;;;;;2.40;0.95;;;;;;;;;;5059979;28;20368;-61
2023/10/31 06:06:23;;;;;;;1.98;0.90;;;;;;;;;;5060755;28;20044;-60
2023/10/31 06:08:48;;;;;;;1.70;0.90;;;;;;;;;;5059462;28;20059;-60
2023/10/31 06:11:15;;;;;;;2.53;1.05;;;;;;;;;;5059985;28;20697;-59
2023/10/31 06:13:41;;;;;;;2.45;1.08;;;;;;;;;;5056552;28;20061;-59
2023/10/31 06:16:07;;;;;;;2.50;1.10;;;;;;;;;;5059345;28;20083;-59
2023/10/31 06:18:33;;;;;;;2.40;1.08;;;;;;;;;;5058638;28;20536;-61
2023/10/31 06:20:58;;;;;;;2.05;0.90;;;;;;;;;;5060142;28;20049;-60
2023/10/31 06:23:24;;;;;;;1.70;0.80;;;;;;;;;;5059075;28;20102;-61
2023/10/31 06:25:49;;;;;;;2.25;1.00;;;;;;;;;;5059128;28;20500;-61
2023/10/31 06:28:15;;;;;;;2.88;1.00;;;;;;;;;;5062312;28;20036;-61
2023/10/31 06:30:41;;;;;;;2.83;0.90;;;;;;;;;;5055588;28;20082;-60
2023/10/31 06:33:08;;;;;;;2.05;0.95;;;;;;;;;;5055112;28;20705;-60
2023/10/31 06:35:34;;;;;;;1.90;0.90;;;;;;;;;;5058786;28;20072;-61
2023/10/31 06:38:00;;;;;;;1.98;0.90;;;;;;;;;;5060710;28;20893;-60
2023/10/31 06:40:26;;;;;;;2.28;0.80;;;;;;;;;;5058516;28;20071;-61
2023/10/31 06:42:51;;;;;;;2.40;1.10;;;;;;;;;;5058702;28;20071;-61
2023/10/31 06:45:17;;;;;;;3.30;1.08;;;;;;;;;;5061024;28;20448;-59
2023/10/31 06:47:42;;;;;;;2.53;0.90;;;;;;;;;;5060516;28;20473;-60
2023/10/31 06:50:08;;;;;;;2.00;0.98;;;;;;;;;;5057930;28;20079;-60
2023/10/31 06:52:34;;;;;;;2.88;1.20;;;;;;;;;;5057565;28;20117;-60
2023/10/31 06:55:00;;;;;;;1.98;0.80;;;;;;;;;;5059131;28;20037;-61
2023/10/31 06:57:26;;;;;;;2.40;0.98;;;;;;;;;;5057729;28;20478;-60
2023/10/31 06:59:51;;;;;;;2.10;0.80;;;;;;;;;;5039613;28;20644;-59
2023/10/31 07:02:17;;;;;;;1.60;0.70;;;;;;;;;;5058954;28;20064;-60
2023/10/31 07:04:43;;;;;;;1.80;0.85;;;;;;;;;;5057877;28;20043;-60
2023/10/31 07:07:08;;;;;;;2.53;1.10;;;;;;;;;;5058174;28;20090;-61
2023/10/31 07:09:34;;;;;;;2.28;0.90;;;;;;;;;;5056602;28;20036;-59
2023/10/31 07:11:59;;;;;;;2.45;0.90;;;;;;;;;;5061559;28;20458;-61
2023/10/31 07:14:25;;;;;;;1.83;0.88;;;;;;;;;;5061569;28;20106;-60
2023/10/31 07:16:50;;;;;;;1.77;0.70;;;;;;;;;;5056835;28;20044;-61
2023/10/31 07:19:16;;;;;;;7.60;1.20;;;;;;;;;;5058680;28;20040;-60
2023/10/31 07:21:42;;;;;;;2.55;1.08;;;;;;;;;;5059376;28;20150;-60
2023/10/31 07:24:08;;;;;;;2.25;0.98;;;;;;;;;;5060093;28;20033;-60
2023/10/31 07:26:34;;;;;;;2.17;0.82;;;;;;;;;;5058748;28;20061;-57
2023/10/31 07:29:00;;;;;;;2.47;0.80;;;;;;;;;;5061386;28;20102;-61
2023/10/31 07:31:25;;;;;;;6.45;0.93;;;;;;;;;;5060362;28;20036;-60
2023/10/31 07:33:51;;;;;;;1.90;0.80;;;;;;;;;;5057929;28;20547;-60
2023/10/31 07:36:16;;;;;;;1.90;0.82;;;;;;;;;;5051249;28;20033;-60
2023/10/31 07:38:42;;;;;;;2.03;0.90;;;;;;;;;;5059962;28;20029;-61
2023/10/31 07:41:08;;;;;;;1.65;0.80;;;;;;;;;;5057080;28;20103;-62
2023/10/31 07:43:33;;;;;;;3.67;1.35;;;;;;;;;;5056090;28;20044;-61
2023/10/31 07:45:59;;;;;;;2.00;1.02;;;;;;;;;;5056554;28;20044;-60
2023/10/31 07:48:24;;;;;;;2.38;1.10;;;;;;;;;;5055033;28;20032;-60
2023/10/31 07:50:50;;;;;;;4.22;0.90;;;;;;;;;;5051060;28;20564;-61
2023/10/31 07:53:16;;;;;;;10.27;1.10;;;;;;;;;;5052252;28;20041;-61
2023/10/31 07:55:41;;;;;;;2.30;0.90;;;;;;;;;;5054150;28;20036;-59
2023/10/31 07:58:08;;;;;;;2.10;0.88;;;;;;;;;;5054250;28;20581;-60
2023/10/31 08:00:35;;;;;;;1.83;0.90;;;;;;;;;;5053951;28;20429;-61
2023/10/31 08:03:00;;;;;;;2.03;0.85;;;;;;;;;;5055096;28;20049;-61
2023/10/31 08:05:26;;;;;;;3.42;0.90;;;;;;;;;;5054737;28;20032;-60
2023/10/31 08:07:52;;;;;;;1.98;1.00;;;;;;;;;;5052571;28;20037;-61
2023/10/31 08:10:17;;;;;;;3.47;0.95;;;;;;;;;;5053699;28;20615;-61
2023/10/31 08:12:43;;;;;;;2.42;1.00;;;;;;;;;;5052022;28;20037;-60
2023/10/31 08:15:09;;;;;;;5.00;0.98;;;;;;;;;;5052642;28;20029;-61
2023/10/31 08:17:35;;;;;;;3.90;1.10;;;;;;;;;;5051766;28;20072;-61
2023/10/31 08:20:03;;;;;;;4.22;0.98;;;;;;;;;;5052073;28;20051;-62
2023/10/31 08:22:28;;;;;;;7.38;1.60;;;;;;;;;;5052244;28;20776;-62
2023/10/31 08:24:55;;;;;;;6.90;1.15;;;;;;;;;;5049075;28;20045;-60
2023/10/31 08:27:21;;;;;;;2.30;0.98;;;;;;;;;;5052232;28;20131;-59
2023/10/31 08:29:47;;;;;;;3.53;1.15;;;;;;;;;;5050272;28;20085;-60
2023/10/31 08:32:12;;;;;;;4.65;1.20;;;;;;;;;;5051139;28;20068;-61
2023/10/31 08:34:38;;;;;;;5.45;1.10;;;;;;;;;;5049587;28;20041;-61
2023/10/31 08:37:03;;;;;;;2.40;0.85;;;;;;;;;;5053657;28;20117;-61
2023/10/31 08:39:30;;;;;;;6.13;1.48;;;;;;;;;;5051659;28;20036;-60
2023/10/31 08:41:57;;;;;;;12.95;1.05;;;;;;;;;;5050580;28;20072;-59
2023/10/31 08:44:22;;;;;;;5.68;1.73;;;;;;;;;;5050826;28;20854;-61
2023/10/31 08:46:48;;;;;;;3.28;1.00;;;;;;;;;;5049281;28;20037;-60
2023/10/31 08:49:14;;;;;;;1.67;0.73;;;;;;;;;;5050474;28;20047;-60
2023/10/31 08:51:40;;;;;;;6.97;1.25;;;;;;;;;;5048958;28;20040;-60
2023/10/31 08:54:05;;;;;;;5.63;0.95;;;;;;;;;;5049754;28;20041;-61
2023/10/31 08:56:31;;;;;;;2.75;0.73;;;;;;;;;;5050242;28;20037;-59
2023/10/31 08:58:56;;;;;;;4.53;1.08;;;;;;;;;;5050084;28;20754;-60
2023/10/31 09:01:22;;;;;;;2.55;1.00;;;;;;;;;;5047784;28;20094;-60
2023/10/31 09:03:48;;;;;;;4.75;1.20;;;;;;;;;;5053150;28;20033;-61
2023/10/31 09:06:13;;;;;;;8.55;1.13;;;;;;;;;;5051259;28;20531;-61
2023/10/31 09:08:39;;;;;;;10.05;1.23;;;;;;;;;;5048996;28;20048;-61
2023/10/31 09:11:05;;;;;;;2.80;0.80;;;;;;;;;;5047665;28;20698;-61
2023/10/31 09:13:31;;;;;;;2.33;1.00;;;;;;;;;;5053144;28;20032;-60
2023/10/31 09:16:00;;;;;;;4.10;0.80;;;;;;;;;;5050852;28;20047;-60
2023/10/31 09:18:25;;;;;;;3.63;1.20;;;;;;;;;;5048769;28;20894;-61
2023/10/31 09:20:51;;;;;;;6.30;1.05;;;;;;;;;;5050836;28;20040;-61
2023/10/31 09:23:18;;;;;;;6.95;1.30;;;;;;;;;;5050481;28;20047;-61
2023/10/31 09:25:44;;;;;;;11.40;1.20;;;;;;;;;;5056433;28;20067;-61
2023/10/31 09:28:10;;;;;;;5.50;1.13;;;;;;;;;;5053981;28;20041;-60
2023/10/31 09:30:35;;;;;;;7.50;1.15;;;;;;;;;;5053996;28;20318;-61
2023/10/31 09:33:01;;;;;;;5.78;1.40;;;;;;;;;;5054141;28;20021;-60
2023/10/31 09:35:26;;;;;;;3.25;0.70;;;;;;;;;;5055863;28;20119;-61
2023/10/31 09:37:52;;;;;;;3.03;0.88;;;;;;;;;;5055735;28;20082;-60
2023/10/31 09:40:18;;;;;;;5.45;1.17;;;;;;;;;;5054298;28;20037;-60
2023/10/31 09:42:44;;;;;;;3.13;1.10;;;;;;;;;;5055799;28;20101;-61
2023/10/31 09:45:10;;;;;;;4.95;0.90;;;;;;;;;;5053711;28;20079;-61
2023/10/31 09:47:36;;;;;;;2.97;0.90;;;;;;;;;;5053688;28;20044;-60
2023/10/31 09:50:01;;;;;;;2.55;0.90;;;;;;;;;;5054952;28;20040;-61
2023/10/31 09:52:27;;;;;;;4.63;0.98;;;;;;;;;;5053454;28;20618;-60
2023/10/31 09:54:53;;;;;;;3.92;0.90;;;;;;;;;;5052396;28;20124;-60
2023/10/31 09:57:18;;;;;;;4.80;0.77;;;;;;;;;;5054189;28;20068;-61
2023/10/31 09:59:44;;;;;;;2.22;0.70;;;;;;;;;;5054108;28;20029;-60
2023/10/31 10:02:10;;;;;;;2.03;0.75;;;;;;;;;;5051833;28;20060;-61
2023/10/31 10:04:36;;;;;;;2.40;0.85;;;;;;;;;;5054809;28;20383;-61
2023/10/31 10:07:03;;;;;;;4.90;0.93;;;;;;;;;;5053167;28;20076;-61
2023/10/31 10:09:29;;;;;;;3.58;1.00;;;;;;;;;;5056414;28;20056;-61
2023/10/31 10:11:55;;;;;;;1.88;0.73;;;;;;;;;;5052848;28;20157;-61
2023/10/31 10:14:24;;;;;;;2.50;0.85;;;;;;;;;;5054613;28;20068;-61
2023/10/31 10:16:49;;;;;;;2.13;0.88;;;;;;;;;;5053232;28;20072;-61
2023/10/31 10:19:19;;;;;;;2.15;0.90;;;;;;;;;;5053966;28;20513;-61
2023/10/31 10:21:52;;;;;;;2.13;0.80;;;;;;;;;;5052582;28;20068;-61
2023/10/31 10:24:18;;;;;;;2.95;0.75;;;;;;;;;;5051522;28;20118;-61
2023/10/31 10:26:44;;;;;;;2.13;0.77;;;;;;;;;;5053241;28;20056;-61
2023/10/31 10:29:09;;;;;;;2.15;0.88;;;;;;;;;;5051500;28;20033;-60
2023/10/31 10:31:35;;;;;;;3.78;1.00;;;;;;;;;;5045586;28;20045;-61
2023/10/31 10:34:04;;;;;;;2.75;0.68;;;;;;;;;;5036096;28;20044;-60
2023/10/31 10:36:32;;;;;;;4.95;0.90;;;;;;;;;;5050317;28;20174;-60
2023/10/31 10:38:57;;;;;;;2.50;0.77;;;;;;;;;;5056589;28;20055;-61
2023/10/31 10:41:27;;;;;;;5.45;0.88;;;;;;;;;;5057866;28;20052;-60
2023/10/31 10:43:56;;;;;;;2.78;0.95;;;;;;;;;;5055473;28;20522;-60
2023/10/31 10:46:24;;;;;;;7.35;1.02;;;;;;;;;;5057260;28;20067;-60
2023/10/31 10:48:51;;;;;;;3.38;0.70;;;;;;;;;;5055744;28;20068;-60
2023/10/31 10:51:31;;;;;;;2.20;0.80;;;;;;;;;;5058564;28;20056;-61
2023/10/31 10:53:59;;;;;;;1.73;0.50;;;;;;;;;;5058304;28;20052;-62
2023/10/31 10:56:30;;;;;;;2.45;0.82;;;;;;;;;;5042601;28;20509;-60
2023/10/31 10:59:00;;;;;;;1.33;0.50;;;;;;;;;;5058504;28;20500;-61
2023/10/31 11:01:28;;;;;;;3.90;0.90;;;;;;;;;;5056514;28;20133;-61
2023/10/31 11:03:56;;;;;;;2.08;0.68;;;;;;;;;;5054826;28;20601;-61
2023/10/31 11:06:22;;;;;;;2.55;0.70;;;;;;;;;;5057689;28;20048;-60
2023/10/31 11:08:49;;;;;;;1.67;0.68;;;;;;;;;;5056104;28;20082;-61
2023/10/31 11:11:18;;;;;;;2.00;0.63;;;;;;;;;;5057443;28;20083;-61
2023/10/31 11:13:43;;;;;;;1.83;0.60;;;;;;;;;;5054965;28;20097;-62
2023/10/31 11:16:13;;;;;;;1.60;0.73;;;;;;;;;;5055325;28;20017;-61
2023/10/31 11:18:38;;;;;;;1.52;0.52;;;;;;;;;;5056766;28;20057;-61
2023/10/31 11:21:04;;;;;;;1.88;0.80;;;;;;;;;;5058559;28;20024;-60
2023/10/31 11:23:30;;;;;;;2.88;0.63;;;;;;;;;;5054788;28;20122;-61
2023/10/31 11:25:55;;;;;;;4.65;0.68;;;;;;;;;;5055983;28;20029;-61
2023/10/31 11:28:21;;;;;;;2.33;0.60;;;;;;;;;;5056674;28;20029;-60
2023/10/31 11:30:49;;;;;;;2.22;0.70;;;;;;;;;;5054222;28;20032;-60
2023/10/31 11:33:18;;;;;;;3.97;0.60;;;;;;;;;;5053042;28;20059;-60
2023/10/31 11:35:49;;;;;;;1.45;0.47;;;;;;;;;;5057561;28;20106;-61
2023/10/31 11:38:14;;;;;;;1.58;0.60;;;;;;;;;;5059420;28;20577;-60
2023/10/31 11:40:49;;;;;;;4.32;0.68;;;;;;;;;;5055312;28;20086;-60
2023/10/31 11:43:14;;;;;;;1.38;0.50;;;;;;;;;;5057663;28;20165;-61
2023/10/31 11:45:47;;;;;;;1.75;0.50;;;;;;;;;;5055100;28;20037;-60
2023/10/31 11:48:13;;;;;;;3.67;0.60;;;;;;;;;;5058634;28;20137;-60
2023/10/31 11:50:39;;;;;;;2.30;0.57;;;;;;;;;;5054944;28;20024;-61
2023/10/31 11:53:11;;;;;;;2.03;0.80;;;;;;;;;;5058482;28;20063;-60
2023/10/31 11:55:41;;;;;;;1.33;0.60;;;;;;;;;;5056960;28;20776;-61
2023/10/31 11:58:17;;;;;;;1.90;0.65;;;;;;;;;;5053919;28;20056;-60
2023/10/31 12:00:42;;;;;;;1.17;0.40;;;;;;;;;;5052242;28;20072;-60
2023/10/31 12:03:08;;;;;;;2.10;0.50;;;;;;;;;;5056963;28;20037;-60
2023/10/31 12:05:34;;;;;;;1.13;0.40;;;;;;;;;;5052552;28;20072;-60
2023/10/31 12:07:59;;;;;;;1.88;0.70;;;;;;;;;;5055240;28;20041;-60
2023/10/31 12:10:26;;;;;;;2.42;0.57;;;;;;;;;;5052141;28;20045;-59
2023/10/31 12:12:52;;;;;;;1.42;0.77;;;;;;;;;;5053580;28;20068;-60
2023/10/31 12:15:18;;;;;;;0.90;0.38;;;;;;;;;;5057190;28;20138;-60
2023/10/31 12:17:44;;;;;;;1.27;0.40;;;;;;;;;;5053358;28;20678;-60
2023/10/31 12:20:09;;;;;;;1.48;0.40;;;;;;;;;;5054184;28;20085;-61
2023/10/31 12:22:35;;;;;;;1.23;0.50;;;;;;;;;;5054761;28;20032;-62
2023/10/31 12:25:04;;;;;;;1.45;0.40;;;;;;;;;;5055681;28;20040;-61
2023/10/31 12:27:45;;;;;;;1.48;0.50;;;;;;;;;;5053329;28;20075;-62
2023/10/31 12:30:12;;;;;;;4.97;0.70;;;;;;;;;;5053136;28;20060;-62
2023/10/31 12:32:39;;;;;;;1.08;0.47;;;;;;;;;;5055647;28;20122;-62
2023/10/31 12:35:05;;;;;;;1.45;0.40;;;;;;;;;;5055976;28;20056;-62
2023/10/31 12:37:31;;;;;;;4.57;0.60;;;;;;;;;;5057249;28;20115;-61
2023/10/31 12:39:57;;;;;;;1.77;0.40;;;;;;;;;;5054762;28;20414;-60
2023/10/31 12:42:23;;;;;;;4.88;0.85;;;;;;;;;;5051029;28;20686;-62
2023/10/31 12:44:48;;;;;;;4.22;0.50;;;;;;;;;;5049769;28;20045;-61
2023/10/31 12:47:21;;;;;;;1.58;0.52;;;;;;;;;;5051353;28;20060;-65
2023/10/31 12:49:46;;;;;;;2.67;0.50;;;;;;;;;;5050095;28;20788;-60
2023/10/31 12:52:12;;;;;;;2.13;0.60;;;;;;;;;;5052157;28;20043;-62
2023/10/31 12:54:38;;;;;;;2.03;0.60;;;;;;;;;;5049371;28;20099;-62
2023/10/31 12:57:04;;;;;;;1.58;0.52;;;;;;;;;;5054200;28;20064;-59
2023/10/31 12:59:33;;;;;;;2.03;0.50;;;;;;;;;;5055410;28;20813;-61
2023/10/31 13:01:59;;;;;;;1.63;0.50;;;;;;;;;;5053933;28;20436;-61
2023/10/31 13:04:26;;;;;;;1.83;0.60;;;;;;;;;;5052052;28;20065;-62
2023/10/31 13:06:59;;;;;;;2.42;0.70;;;;;;;;;;5052968;28;20080;-61
2023/10/31 13:09:28;;;;;;;3.38;0.73;;;;;;;;;;5055990;28;20896;-61
2023/10/31 13:11:56;;;;;;;2.83;0.93;;;;;;;;;;5052932;28;20060;-61
2023/10/31 13:14:22;;;;;;;1.60;0.50;;;;;;;;;;5054649;28;20567;-62
2023/10/31 13:16:47;;;;;;;1.48;0.63;;;;;;;;;;5053751;28;20037;-61
2023/10/31 13:19:13;;;;;;;1.63;0.63;;;;;;;;;;5055628;28;20091;-62
2023/10/31 13:21:39;;;;;;;1.38;0.50;;;;;;;;;;5056630;28;20059;-61
2023/10/31 13:24:05;;;;;;;2.55;0.40;;;;;;;;;;5053852;28;20044;-61
2023/10/31 13:26:30;;;;;;;1.90;0.60;;;;;;;;;;5055394;28;20066;-62
2023/10/31 13:28:56;;;;;;;1.58;0.63;;;;;;;;;;5056795;28;20033;-62
2023/10/31 13:31:21;;;;;;;1.98;0.50;;;;;;;;;;5053101;28;20040;-61
2023/10/31 13:33:47;;;;;;;2.83;0.70;;;;;;;;;;5054582;28;20090;-60
2023/10/31 13:36:12;;;;;;;2.60;0.52;;;;;;;;;;5055231;28;20044;-61
2023/10/31 13:38:38;;;;;;;1.08;0.47;;;;;;;;;;5055719;28;21277;-61
2023/10/31 13:41:04;;;;;;;2.65;0.57;;;;;;;;;;5058505;28;20078;-61
2023/10/31 13:43:29;;;;;;;4.90;0.63;;;;;;;;;;5057195;28;20028;-62
2023/10/31 13:45:55;;;;;;;1.75;0.50;;;;;;;;;;5054339;28;20075;-61
2023/10/31 13:48:21;;;;;;;1.52;0.52;;;;;;;;;;5055349;28;20041;-60
2023/10/31 13:50:46;;;;;;;3.58;0.60;;;;;;;;;;5057522;28;20024;-58
2023/10/31 13:53:12;;;;;;;5.13;0.70;;;;;;;;;;5056858;28;20086;-61
2023/10/31 13:55:38;;;;;;;4.47;1.00;;;;;;;;;;5057962;28;20064;-61
2023/10/31 13:58:03;;;;;;;3.72;1.40;;;;;;;;;;5058119;28;20567;-61
2023/10/31 14:00:29;;;;;;;6.07;0.95;;;;;;;;;;5056975;28;20040;-61
2023/10/31 14:02:55;;;;;;;3.05;1.00;;;;;;;;;;5055436;28;20037;-63
2023/10/31 14:05:20;;;;;;;3.63;0.85;;;;;;;;;;5058466;28;20398;-62
2023/10/31 14:07:46;;;;;;;6.78;1.00;;;;;;;;;;5056904;28;20094;-62
2023/10/31 14:10:12;;;;;;;3.13;1.08;;;;;;;;;;5057239;28;20044;-62
2023/10/31 14:12:37;;;;;;;4.30;1.20;;;;;;;;;;5057175;28;20029;-61
2023/10/31 14:15:03;;;;;;;4.93;1.20;;;;;;;;;;5056499;28;20105;-62
2023/10/31 14:17:29;;;;;;;3.63;0.82;;;;;;;;;;5061341;28;20490;-61
2023/10/31 14:19:54;;;;;;;4.97;0.90;;;;;;;;;;5055533;28;20126;-61
2023/10/31 14:22:20;;;;;;;2.22;0.70;;;;;;;;;;5059543;28;20068;-62
2023/10/31 14:24:46;;;;;;;3.38;1.00;;;;;;;;;;5059116;28;20063;-62
2023/10/31 14:27:12;;;;;;;2.17;0.85;;;;;;;;;;5056952;28;20049;-62
2023/10/31 14:29:37;;;;;;;3.08;0.90;;;;;;;;;;5056354;28;20106;-61
2023/10/31 14:32:09;;;;;;;4.15;1.10;;;;;;;;;;5052228;28;20036;-62
2023/10/31 14:34:35;;;;;;;2.05;0.65;;;;;;;;;;5054494;28;20502;-60
2023/10/31 14:37:01;;;;;;;2.53;0.88;;;;;;;;;;5054529;28;20596;-60